Time;durP1;ratioP1;P1;durP2;ratioP2;P2;SDS_P1;SDS_P2;PMS_P1;PMS_P2;Temp;Humidity;BMP_temperature;BMP_pressure;BME280_temperature;BME280_humidity;BME280_pressure;Samples;Min_cycle;Max_cycle;Signal;HPM_P1;HPM_P2
2023/01/20 00:01:01;;;;;;;;;;;0.10;99.90;;;;;;5120197;27;19923;-78
2023/01/20 00:03:26;;;;;;;;;;;0.20;99.90;;;;;;5120587;27;19928;-78
2023/01/20 00:05:52;;;;;;;;;;;0.30;99.90;;;;;;5129920;27;19923;-78
2023/01/20 00:08:17;;;;;;;;;;;0.50;99.90;;;;;;5104272;27;19927;-78
2023/01/20 00:10:43;;;;;;;;;;;0.40;99.90;;;;;;5120179;27;19948;-78
2023/01/20 00:13:09;;;;;;;;;;;0.50;99.90;;;;;;5120860;27;19959;-78
2023/01/20 00:15:34;;;;;;;;;;;0.50;99.90;;;;;;5115794;27;19930;-78
2023/01/20 00:18:00;;;;;;;;;;;0.60;99.90;;;;;;5112751;27;19931;-78
2023/01/20 00:20:25;;;;;;;;;;;0.50;99.90;;;;;;5119933;27;19939;-78
2023/01/20 00:22:51;;;;;;;;;;;0.60;99.90;;;;;;5138532;27;19980;-78
2023/01/20 00:25:16;;;;;;;;;;;0.70;99.90;;;;;;5121016;27;19923;-78
2023/01/20 00:27:42;;;;;;;;;;;0.70;99.90;;;;;;5130325;27;19934;-78
2023/01/20 00:30:08;;;;;;;;;;;0.80;99.90;;;;;;5118170;27;19924;-79
2023/01/20 00:32:37;;;;;;;;;;;0.70;99.90;;;;;;5136087;27;20383;-78
2023/01/20 00:35:04;;;;;;;;;;;0.80;99.90;;;;;;5120048;27;20068;-79
2023/01/20 00:37:29;;;;;;;;;;;0.80;99.90;;;;;;5119070;27;19931;-79
2023/01/20 00:39:55;;;;;;;;;;;0.80;99.90;;;;;;5114559;27;20032;-78
2023/01/20 00:42:20;;;;;;;;;;;0.80;99.90;;;;;;5116142;27;19943;-78
2023/01/20 00:44:46;;;;;;;;;;;0.80;99.90;;;;;;5118091;27;19934;-77
2023/01/20 00:47:12;;;;;;;;;;;0.80;99.90;;;;;;5100177;27;19934;-78
2023/01/20 00:49:37;;;;;;;;;;;0.80;99.90;;;;;;5110675;27;19931;-78
2023/01/20 00:52:03;;;;;;;;;;;0.80;99.90;;;;;;5119920;27;19990;-79
2023/01/20 00:54:28;;;;;;;;;;;0.80;99.90;;;;;;5114706;27;19931;-78
2023/01/20 00:56:54;;;;;;;;;;;0.80;99.90;;;;;;5113451;27;19924;-78
2023/01/20 00:59:19;;;;;;;;;;;0.80;99.90;;;;;;5120963;27;19930;-79
2023/01/20 01:01:45;;;;;;;;;;;0.80;99.90;;;;;;5118634;27;19924;-79
2023/01/20 01:04:10;;;;;;;;;;;0.80;99.90;;;;;;5118281;27;19923;-79
2023/01/20 01:06:38;;;;;;;;;;;0.80;99.90;;;;;;5099154;27;19951;-78
2023/01/20 01:09:04;;;;;;;;;;;0.80;99.90;;;;;;5123731;27;19930;-79
2023/01/20 01:11:29;;;;;;;;;;;0.80;99.90;;;;;;5088456;28;19924;-78
2023/01/20 01:13:56;;;;;;;;;;;0.80;99.90;;;;;;5111509;27;19982;-78
2023/01/20 01:16:22;;;;;;;;;;;0.80;99.90;;;;;;5120277;27;19928;-78
2023/01/20 01:18:47;;;;;;;;;;;0.70;99.90;;;;;;5096829;27;19978;-78
2023/01/20 01:21:14;;;;;;;;;;;0.80;99.90;;;;;;5118135;28;19963;-79
2023/01/20 01:23:40;;;;;;;;;;;0.80;99.90;;;;;;5114476;28;20001;-79
2023/01/20 01:26:06;;;;;;;;;;;0.70;99.90;;;;;;5090088;28;20737;-78
2023/01/20 01:28:31;;;;;;;;;;;0.70;99.90;;;;;;5112593;28;19924;-79
2023/01/20 01:31:01;;;;;;;;;;;0.70;99.90;;;;;;5118117;28;19948;-79
2023/01/20 01:33:27;;;;;;;;;;;0.70;99.90;;;;;;5138151;28;19931;-79
2023/01/20 01:35:56;;;;;;;;;;;0.70;99.90;;;;;;5092404;28;19929;-79
2023/01/20 01:38:22;;;;;;;;;;;0.70;99.90;;;;;;5115788;28;19928;-79
2023/01/20 01:40:48;;;;;;;;;;;0.70;99.90;;;;;;5117058;28;19923;-79
2023/01/20 01:43:24;;;;;;;;;;;0.70;99.90;;;;;;5117129;28;19924;-79
2023/01/20 01:45:50;;;;;;;;;;;0.70;99.90;;;;;;5137811;28;19974;-79
2023/01/20 01:48:16;;;;;;;;;;;0.80;99.90;;;;;;5118873;28;19927;-79
2023/01/20 01:50:47;;;;;;;;;;;0.70;99.90;;;;;;5113483;27;19931;-79
2023/01/20 01:53:13;;;;;;;;;;;0.70;99.90;;;;;;5117689;28;19932;-79
2023/01/20 01:55:42;;;;;;;;;;;0.70;99.90;;;;;;5138206;28;19930;-79
2023/01/20 01:58:08;;;;;;;;;;;0.70;99.90;;;;;;5101340;28;19928;-78
2023/01/20 02:00:34;;;;;;;;;;;0.70;99.90;;;;;;5117557;28;19927;-79
2023/01/20 02:03:00;;;;;;;;;;;0.70;99.90;;;;;;5115949;28;20005;-78
2023/01/20 02:05:27;;;;;;;;;;;0.70;99.90;;;;;;5093216;28;20338;-78
2023/01/20 02:07:52;;;;;;;;;;;0.70;99.90;;;;;;5120436;28;19970;-78
2023/01/20 02:10:18;;;;;;;;;;;0.70;99.90;;;;;;5115317;28;19928;-78
2023/01/20 02:12:46;;;;;;;;;;;0.60;99.90;;;;;;5113988;28;19984;-78
2023/01/20 02:15:12;;;;;;;;;;;0.60;99.90;;;;;;5100623;28;19924;-78
2023/01/20 02:17:52;;;;;;;;;;;0.60;99.90;;;;;;5102551;28;19931;-78
2023/01/20 02:20:33;;;;;;;;;;;0.50;99.90;;;;;;5116169;28;19931;-78
2023/01/20 02:23:08;;;;;;;;;;;0.60;99.90;;;;;;5113671;28;19962;-78
2023/01/20 02:25:46;;;;;;;;;;;0.60;99.90;;;;;;5119332;28;20510;-78
2023/01/20 02:28:11;;;;;;;;;;;0.60;99.90;;;;;;5136483;27;19923;-78
2023/01/20 02:30:48;;;;;;;;;;;0.60;99.90;;;;;;5120681;27;19970;-78
2023/01/20 02:33:23;;;;;;;;;;;0.50;99.90;;;;;;5120242;27;19931;-78
2023/01/20 02:35:52;;;;;;;;;;;0.60;99.90;;;;;;5119255;27;19923;-78
2023/01/20 02:38:17;;;;;;;;;;;0.60;99.90;;;;;;5140517;27;19923;-78
2023/01/20 02:40:55;;;;;;;;;;;0.60;99.90;;;;;;5120513;27;19987;-79
2023/01/20 02:43:24;;;;;;;;;;;0.60;99.90;;;;;;5120197;27;20018;-79
2023/01/20 02:45:50;;;;;;;;;;;0.60;99.90;;;;;;5135477;27;20021;-78
2023/01/20 02:48:34;;;;;;;;;;;0.60;99.90;;;;;;5118530;27;20486;-78
2023/01/20 02:51:04;;;;;;;;;;;0.60;99.90;;;;;;5119316;27;20400;-78
2023/01/20 02:53:35;;;;;;;;;;;0.60;99.90;;;;;;5119517;27;21467;-79
2023/01/20 02:56:00;;;;;;;;;;;0.60;99.90;;;;;;5121277;27;20013;-79
2023/01/20 02:58:30;;;;;;;;;;;0.60;99.90;;;;;;5120720;27;19927;-78
2023/01/20 03:01:00;;;;;;;;;;;0.60;99.90;;;;;;5120965;27;19927;-79
2023/01/20 03:03:35;;;;;;;;;;;0.60;99.90;;;;;;5112682;27;19927;-79
2023/01/20 03:06:02;;;;;;;;;;;0.60;99.90;;;;;;5139892;27;19966;-79
2023/01/20 03:08:30;;;;;;;;;;;0.60;99.90;;;;;;5120816;27;19988;-78
2023/01/20 03:10:59;;;;;;;;;;;0.60;99.90;;;;;;5093991;27;19928;-78
2023/01/20 03:13:30;;;;;;;;;;;0.60;99.90;;;;;;5112373;27;19965;-78
2023/01/20 03:15:59;;;;;;;;;;;0.60;99.90;;;;;;5121977;27;19934;-78
2023/01/20 03:18:25;;;;;;;;;;;0.60;99.90;;;;;;5106358;27;19923;-79
2023/01/20 03:20:51;;;;;;;;;;;0.60;99.90;;;;;;5122144;27;20033;-79
2023/01/20 03:23:16;;;;;;;;;;;0.60;99.90;;;;;;5119620;27;19984;-79
2023/01/20 03:25:43;;;;;;;;;;;0.60;99.90;;;;;;5116986;27;20448;-78
2023/01/20 03:28:08;;;;;;;;;;;0.60;99.90;;;;;;5138553;27;19949;-79
2023/01/20 03:30:34;;;;;;;;;;;0.60;99.90;;;;;;5119331;27;19955;-78
2023/01/20 03:33:00;;;;;;;;;;;0.60;99.90;;;;;;5121459;27;19923;-78
2023/01/20 03:35:26;;;;;;;;;;;0.60;99.90;;;;;;5118643;27;20466;-78
2023/01/20 03:37:52;;;;;;;;;;;0.60;99.90;;;;;;5085319;27;20006;-78
2023/01/20 03:40:18;;;;;;;;;;;0.60;99.90;;;;;;5115542;28;22413;-79
2023/01/20 03:42:52;;;;;;;;;;;0.60;99.90;;;;;;5120212;27;20266;-78
2023/01/20 03:45:25;;;;;;;;;;;0.60;99.90;;;;;;5119763;27;19923;-78
2023/01/20 03:47:51;;;;;;;;;;;0.60;99.90;;;;;;5120362;27;19962;-79
2023/01/20 03:50:31;;;;;;;;;;;0.60;99.90;;;;;;5117630;27;19934;-78
2023/01/20 03:53:15;;;;;;;;;;;0.60;99.90;;;;;;5117157;27;19927;-79
2023/01/20 03:55:43;;;;;;;;;;;0.60;99.90;;;;;;5111924;27;19958;-78
2023/01/20 03:58:21;;;;;;;;;;;0.60;99.90;;;;;;5120764;27;19969;-79
2023/01/20 04:00:48;;;;;;;;;;;0.60;99.90;;;;;;5101478;27;20356;-78
2023/01/20 04:03:18;;;;;;;;;;;0.60;99.90;;;;;;5094160;28;19933;-78
2023/01/20 04:05:45;;;;;;;;;;;0.60;99.90;;;;;;5115985;27;19923;-78
2023/01/20 04:08:12;;;;;;;;;;;0.60;99.90;;;;;;5128102;27;19924;-78
2023/01/20 04:10:39;;;;;;;;;;;0.70;99.90;;;;;;5092874;27;19981;-78
2023/01/20 04:13:05;;;;;;;;;;;0.70;99.90;;;;;;5115889;27;19928;-78
2023/01/20 04:15:33;;;;;;;;;;;0.70;99.90;;;;;;5118466;27;19930;-78
2023/01/20 04:18:09;;;;;;;;;;;0.70;99.90;;;;;;5118785;27;20354;-78
2023/01/20 04:20:35;;;;;;;;;;;0.70;99.90;;;;;;5128977;27;19927;-79
2023/01/20 04:23:01;;;;;;;;;;;0.70;99.90;;;;;;5118935;27;20005;-79
2023/01/20 04:25:30;;;;;;;;;;;0.70;99.90;;;;;;5119787;27;20301;-79
2023/01/20 04:27:56;;;;;;;;;;;0.70;99.90;;;;;;5110794;27;19927;-79
2023/01/20 04:30:22;;;;;;;;;;;0.70;99.90;;;;;;5119894;27;19930;-78
2023/01/20 04:32:47;;;;;;;;;;;0.70;99.90;;;;;;5119530;27;20309;-79
2023/01/20 04:35:13;;;;;;;;;;;0.70;99.90;;;;;;5119746;27;19978;-79
2023/01/20 04:37:39;;;;;;;;;;;0.70;99.90;;;;;;5121041;27;19935;-79
2023/01/20 04:40:05;;;;;;;;;;;0.70;99.90;;;;;;5110430;27;19928;-78
2023/01/20 04:42:30;;;;;;;;;;;0.70;99.90;;;;;;5103967;27;19937;-78
2023/01/20 04:44:56;;;;;;;;;;;0.70;99.90;;;;;;5115188;27;19974;-78
2023/01/20 04:47:21;;;;;;;;;;;0.70;99.90;;;;;;5112452;27;19954;-79
2023/01/20 04:49:47;;;;;;;;;;;0.70;99.90;;;;;;5119311;27;20397;-79
2023/01/20 04:52:13;;;;;;;;;;;0.70;99.90;;;;;;5102515;27;19928;-79
2023/01/20 04:54:38;;;;;;;;;;;0.70;99.90;;;;;;5120854;27;19982;-78
2023/01/20 04:57:04;;;;;;;;;;;0.70;99.90;;;;;;5116894;27;19930;-79
2023/01/20 04:59:29;;;;;;;;;;;0.70;99.90;;;;;;5104831;27;19949;-79
2023/01/20 05:01:55;;;;;;;;;;;0.70;99.90;;;;;;5135596;27;19928;-78
2023/01/20 05:04:21;;;;;;;;;;;0.70;99.90;;;;;;5119135;27;19923;-78
2023/01/20 05:06:46;;;;;;;;;;;0.70;99.90;;;;;;5119821;27;20313;-78
2023/01/20 05:09:13;;;;;;;;;;;0.80;99.90;;;;;;5100023;27;19941;-78
2023/01/20 05:11:38;;;;;;;;;;;0.70;99.90;;;;;;5113840;28;19929;-78
2023/01/20 05:14:04;;;;;;;;;;;0.70;99.90;;;;;;5105243;27;20362;-78
2023/01/20 05:16:30;;;;;;;;;;;0.70;99.90;;;;;;5120596;27;19990;-78
2023/01/20 05:18:56;;;;;;;;;;;0.70;99.90;;;;;;5111256;28;19927;-78
2023/01/20 05:21:22;;;;;;;;;;;0.80;99.90;;;;;;5119095;28;19927;-78
2023/01/20 05:23:48;;;;;;;;;;;0.80;99.90;;;;;;5111079;28;19930;-78
2023/01/20 05:26:13;;;;;;;;;;;0.80;99.90;;;;;;5120766;28;19928;-78
2023/01/20 05:28:39;;;;;;;;;;;0.80;99.90;;;;;;5102232;28;19927;-78
2023/01/20 05:31:04;;;;;;;;;;;0.80;99.90;;;;;;5101392;28;19935;-78
2023/01/20 05:33:30;;;;;;;;;;;0.80;99.90;;;;;;5088727;28;19973;-78
2023/01/20 05:35:55;;;;;;;;;;;0.80;99.90;;;;;;5095410;28;19932;-78
2023/01/20 05:38:21;;;;;;;;;;;0.80;99.90;;;;;;5092211;28;19946;-78
2023/01/20 05:40:46;;;;;;;;;;;0.80;99.90;;;;;;5089588;28;19924;-78
2023/01/20 05:43:12;;;;;;;;;;;0.80;99.90;;;;;;5074287;28;19924;-78
2023/01/20 05:45:38;;;;;;;;;;;0.80;99.90;;;;;;5083944;28;19924;-77
2023/01/20 05:48:04;;;;;;;;;;;0.80;99.90;;;;;;5092012;28;19930;-78
2023/01/20 05:50:30;;;;;;;;;;;0.80;99.90;;;;;;5089080;28;19999;-78
2023/01/20 05:52:55;;;;;;;;;;;0.80;99.90;;;;;;5071792;28;19960;-78
2023/01/20 05:55:21;;;;;;;;;;;0.80;99.90;;;;;;5089477;28;19924;-78
2023/01/20 05:57:47;;;;;;;;;;;0.80;99.90;;;;;;5078809;28;19924;-78
2023/01/20 06:00:13;;;;;;;;;;;0.80;99.90;;;;;;5073774;28;19982;-78
2023/01/20 06:02:39;;;;;;;;;;;0.80;99.90;;;;;;5094284;28;20585;-78
2023/01/20 06:05:05;;;;;;;;;;;0.80;99.90;;;;;;5090463;28;19947;-78
2023/01/20 06:07:30;;;;;;;;;;;0.90;99.90;;;;;;5071486;28;19990;-78
2023/01/20 06:09:56;;;;;;;;;;;0.80;99.90;;;;;;5099136;28;19985;-78
2023/01/20 06:12:22;;;;;;;;;;;0.90;99.90;;;;;;5086966;28;19958;-78
2023/01/20 06:14:48;;;;;;;;;;;0.90;99.90;;;;;;5095230;28;19929;-78
2023/01/20 06:17:13;;;;;;;;;;;0.80;99.90;;;;;;5097761;28;19928;-78
2023/01/20 06:19:39;;;;;;;;;;;0.90;99.90;;;;;;5091744;28;19924;-78
2023/01/20 06:22:06;;;;;;;;;;;0.90;99.90;;;;;;5095690;28;19924;-78
2023/01/20 06:24:32;;;;;;;;;;;0.80;99.90;;;;;;5092461;28;19943;-78
2023/01/20 06:26:57;;;;;;;;;;;0.90;99.90;;;;;;5096611;28;19928;-78
2023/01/20 06:29:23;;;;;;;;;;;0.90;99.90;;;;;;5100419;28;20019;-77
2023/01/20 06:31:48;;;;;;;;;;;0.90;99.90;;;;;;5097014;28;20398;-77
2023/01/20 06:34:14;;;;;;;;;;;0.90;99.90;;;;;;5096733;28;19935;-78
2023/01/20 06:36:39;;;;;;;;;;;0.90;99.90;;;;;;5095149;28;19968;-78
2023/01/20 06:39:05;;;;;;;;;;;0.90;99.90;;;;;;5098756;28;20007;-78
2023/01/20 06:41:31;;;;;;;;;;;0.90;99.90;;;;;;5095044;28;19973;-78
2023/01/20 06:43:57;;;;;;;;;;;0.90;99.90;;;;;;5090105;28;19928;-78
2023/01/20 06:46:22;;;;;;;;;;;0.90;99.90;;;;;;5077003;28;19950;-78
2023/01/20 06:48:48;;;;;;;;;;;0.90;99.90;;;;;;5093299;28;19998;-77
2023/01/20 06:51:18;;;;;;;;;;;0.90;99.90;;;;;;5097470;28;19935;-78
2023/01/20 06:53:44;;;;;;;;;;;0.90;99.90;;;;;;5068793;28;20395;-78
2023/01/20 06:56:10;;;;;;;;;;;0.90;99.90;;;;;;5096335;28;19950;-78
2023/01/20 06:58:36;;;;;;;;;;;0.90;99.90;;;;;;5072320;28;20313;-78
2023/01/20 07:01:07;;;;;;;;;;;0.90;99.90;;;;;;5090028;28;19978;-78
2023/01/20 07:03:33;;;;;;;;;;;1.00;99.90;;;;;;5091708;28;19948;-78
2023/01/20 07:06:00;;;;;;;;;;;0.90;99.90;;;;;;5080264;28;19935;-79
2023/01/20 07:08:26;;;;;;;;;;;1.00;99.90;;;;;;5098380;28;20525;-79
2023/01/20 07:10:51;;;;;;;;;;;0.80;99.90;;;;;;5086821;28;19928;-78
2023/01/20 07:13:17;;;;;;;;;;;1.00;99.90;;;;;;5095092;28;19928;-78
2023/01/20 07:15:42;;;;;;;;;;;0.90;99.90;;;;;;5097707;28;19938;-78
2023/01/20 07:18:08;;;;;;;;;;;0.90;99.90;;;;;;5073957;28;19924;-78
2023/01/20 07:20:33;;;;;;;;;;;0.90;99.90;;;;;;5094416;28;20015;-78
2023/01/20 07:22:59;;;;;;;;;;;0.90;99.90;;;;;;5082082;28;19931;-78
2023/01/20 07:25:25;;;;;;;;;;;0.90;99.90;;;;;;5092577;28;19959;-79
2023/01/20 07:27:50;;;;;;;;;;;0.90;99.90;;;;;;5090487;28;20335;-78
2023/01/20 07:30:16;;;;;;;;;;;0.90;99.90;;;;;;5097046;28;19928;-78
2023/01/20 07:32:41;;;;;;;;;;;0.90;99.90;;;;;;5090128;28;20007;-78
2023/01/20 07:35:07;;;;;;;;;;;0.90;99.90;;;;;;5135904;27;19969;-78
2023/01/20 07:37:34;;;;;;;;;;;0.90;99.90;;;;;;5104406;27;19984;-78
2023/01/20 07:39:59;;;;;;;;;;;0.90;99.90;;;;;;5120307;27;19987;-78
2023/01/20 07:42:25;;;;;;;;;;;0.90;99.90;;;;;;5089446;27;20149;-78
2023/01/20 07:44:50;;;;;;;;;;;0.90;99.90;;;;;;5116109;27;19935;-78
2023/01/20 07:47:16;;;;;;;;;;;0.90;99.90;;;;;;5117175;27;19973;-78
2023/01/20 07:49:42;;;;;;;;;;;0.90;99.90;;;;;;5133503;27;19930;-78
2023/01/20 07:52:07;;;;;;;;;;;0.90;99.90;;;;;;5115040;27;19923;-78
2023/01/20 07:54:33;;;;;;;;;;;1.00;99.90;;;;;;5121390;27;20000;-78
2023/01/20 07:56:59;;;;;;;;;;;1.00;99.90;;;;;;5113950;27;19954;-79
2023/01/20 07:59:25;;;;;;;;;;;1.00;99.90;;;;;;5121692;27;19980;-78
2023/01/20 08:01:50;;;;;;;;;;;0.90;99.90;;;;;;5101595;27;19944;-78
2023/01/20 08:04:16;;;;;;;;;;;1.00;99.90;;;;;;5102003;27;19932;-77
2023/01/20 08:06:42;;;;;;;;;;;1.00;99.90;;;;;;5137196;27;19923;-77
2023/01/20 08:09:11;;;;;;;;;;;1.00;99.90;;;;;;5127835;27;19930;-78
2023/01/20 08:11:37;;;;;;;;;;;1.00;99.90;;;;;;5105806;27;19927;-78
2023/01/20 08:14:03;;;;;;;;;;;1.00;99.90;;;;;;5098396;27;19955;-78
2023/01/20 08:16:28;;;;;;;;;;;1.00;99.90;;;;;;5118562;27;19962;-77
2023/01/20 08:18:54;;;;;;;;;;;1.00;99.90;;;;;;5111224;27;19931;-78
2023/01/20 08:21:21;;;;;;;;;;;1.00;99.90;;;;;;5133835;27;20059;-79
2023/01/20 08:23:47;;;;;;;;;;;1.00;99.90;;;;;;5118915;27;19932;-78
2023/01/20 08:26:13;;;;;;;;;;;1.00;99.90;;;;;;5102404;27;19938;-78
2023/01/20 08:28:38;;;;;;;;;;;1.00;99.90;;;;;;5117465;27;19967;-78
2023/01/20 08:31:05;;;;;;;;;;;1.10;99.90;;;;;;5096721;28;19931;-78
2023/01/20 08:33:31;;;;;;;;;;;1.10;99.90;;;;;;5105287;28;20430;-78
2023/01/20 08:36:01;;;;;;;;;;;1.10;99.90;;;;;;5094569;28;19928;-77
2023/01/20 08:38:28;;;;;;;;;;;1.10;99.90;;;;;;5096554;28;19966;-78
2023/01/20 08:40:53;;;;;;;;;;;1.10;99.90;;;;;;5095873;28;20391;-78
2023/01/20 08:43:19;;;;;;;;;;;1.10;99.90;;;;;;5096210;28;19932;-78
2023/01/20 08:45:44;;;;;;;;;;;1.10;99.90;;;;;;5092266;28;19935;-78
2023/01/20 08:48:10;;;;;;;;;;;1.10;99.90;;;;;;5096126;28;20025;-77
2023/01/20 08:50:36;;;;;;;;;;;1.10;99.90;;;;;;5097322;28;19928;-78
2023/01/20 08:53:01;;;;;;;;;;;1.10;99.90;;;;;;5093714;28;19995;-78
2023/01/20 08:55:27;;;;;;;;;;;1.20;99.90;;;;;;5077963;28;20418;-77
2023/01/20 08:57:52;;;;;;;;;;;1.10;99.90;;;;;;5095730;28;19947;-78
2023/01/20 09:00:18;;;;;;;;;;;1.10;99.90;;;;;;5087944;28;19924;-77
2023/01/20 09:02:44;;;;;;;;;;;1.20;99.90;;;;;;5070888;28;19924;-78
2023/01/20 09:05:09;;;;;;;;;;;1.30;99.90;;;;;;5091146;28;19939;-77
2023/01/20 09:07:35;;;;;;;;;;;1.20;99.90;;;;;;5084744;28;19931;-77
2023/01/20 09:10:01;;;;;;;;;;;1.30;99.90;;;;;;5086412;28;20464;-77
2023/01/20 09:12:26;;;;;;;;;;;1.30;99.90;;;;;;5088189;28;19932;-78
2023/01/20 09:14:52;;;;;;;;;;;1.30;99.90;;;;;;5094993;28;19924;-78
2023/01/20 09:17:17;;;;;;;;;;;1.30;99.90;;;;;;5094199;28;20390;-78
2023/01/20 09:19:43;;;;;;;;;;;1.30;99.90;;;;;;5067305;28;19925;-78
2023/01/20 09:22:08;;;;;;;;;;;1.30;99.90;;;;;;5065221;28;20022;-78
2023/01/20 09:24:34;;;;;;;;;;;1.30;99.90;;;;;;5092290;28;19928;-78
2023/01/20 09:26:59;;;;;;;;;;;1.40;99.90;;;;;;5094291;28;19974;-78
2023/01/20 09:29:25;;;;;;;;;;;1.40;99.90;;;;;;5087201;28;19928;-78
2023/01/20 09:31:52;;;;;;;;;;;1.40;99.90;;;;;;5091851;28;20027;-78
2023/01/20 09:34:21;;;;;;;;;;;1.40;99.90;;;;;;5094484;28;19934;-78
2023/01/20 09:36:52;;;;;;;;;;;1.50;99.90;;;;;;5091880;28;19925;-78
2023/01/20 09:45:03;;;;;;;;;;;1.60;99.90;;;;;;5097602;28;20015;-78
2023/01/20 09:47:39;;;;;;;;;;;1.50;99.90;;;;;;5098836;28;19924;-78
2023/01/20 09:53:14;;;;;;;;;;;1.50;99.90;;;;;;5099083;28;19928;-78
2023/01/20 09:55:45;;;;;;;;;;;1.60;99.90;;;;;;5099259;28;19939;-78
2023/01/20 09:58:14;;;;;;;;;;;1.50;99.90;;;;;;5097923;28;19931;-78
2023/01/20 10:00:41;;;;;;;;;;;1.50;99.90;;;;;;5096449;28;19952;-78
2023/01/20 10:03:17;;;;;;;;;;;1.50;99.90;;;;;;5095490;28;19932;-78
2023/01/20 10:05:43;;;;;;;;;;;1.50;99.90;;;;;;5093675;28;19956;-78
2023/01/20 10:08:15;;;;;;;;;;;1.50;99.90;;;;;;5099733;28;19963;-78
2023/01/20 10:10:44;;;;;;;;;;;1.50;99.90;;;;;;5091858;28;19924;-78
2023/01/20 10:13:13;;;;;;;;;;;1.50;99.90;;;;;;5092228;28;20443;-79
2023/01/20 10:15:43;;;;;;;;;;;1.50;99.90;;;;;;5093089;28;20469;-78
2023/01/20 10:18:14;;;;;;;;;;;1.50;99.90;;;;;;5097312;28;20168;-78
2023/01/20 10:20:44;;;;;;;;;;;1.50;99.90;;;;;;5093168;28;19946;-78
2023/01/20 10:23:15;;;;;;;;;;;1.50;99.90;;;;;;5099275;28;20004;-78
2023/01/20 10:25:48;;;;;;;;;;;1.50;99.90;;;;;;5083297;28;19946;-78
2023/01/20 10:28:14;;;;;;;;;;;1.50;99.90;;;;;;5113850;28;19949;-77
2023/01/20 10:30:41;;;;;;;;;;;1.50;99.90;;;;;;5088157;28;20343;-77
2023/01/20 10:33:27;;;;;;;;;;;1.50;99.90;;;;;;5099769;27;19928;-79
2023/01/20 10:35:53;;;;;;;;;;;1.50;99.90;;;;;;5113276;27;19927;-80
2023/01/20 10:38:32;;;;;;;;;;;1.50;99.90;;;;;;5114122;27;19928;-80
2023/01/20 10:41:04;;;;;;;;;;;1.50;99.90;;;;;;5121679;27;20373;-80
2023/01/20 10:43:30;;;;;;;;;;;1.50;99.90;;;;;;5120263;27;19927;-80
2023/01/20 10:46:02;;;;;;;;;;;1.50;99.90;;;;;;5122773;27;20071;-80
2023/01/20 10:48:30;;;;;;;;;;;1.50;99.90;;;;;;5113986;27;19930;-80
2023/01/20 10:51:14;;;;;;;;;;;1.60;99.90;;;;;;5121104;27;19934;-79
2023/01/20 10:53:45;;;;;;;;;;;1.50;99.90;;;;;;5121303;27;19930;-80
2023/01/20 10:56:19;;;;;;;;;;;1.50;99.90;;;;;;5121572;27;19924;-80
2023/01/20 10:58:46;;;;;;;;;;;1.50;99.90;;;;;;5122394;27;20404;-80
2023/01/20 11:01:13;;;;;;;;;;;1.50;99.90;;;;;;5118840;27;19932;-80
2023/01/20 11:03:40;;;;;;;;;;;1.50;99.90;;;;;;5116760;27;19923;-80
2023/01/20 11:06:09;;;;;;;;;;;1.50;99.90;;;;;;5113825;27;19923;-80
2023/01/20 11:08:35;;;;;;;;;;;1.50;99.90;;;;;;5128269;27;19931;-80
2023/01/20 11:11:09;;;;;;;;;;;1.50;99.90;;;;;;5111100;27;19927;-79
2023/01/20 11:13:34;;;;;;;;;;;1.50;99.90;;;;;;5115691;27;19931;-80
2023/01/20 11:16:02;;;;;;;;;;;1.50;99.90;;;;;;5113498;27;19923;-80
2023/01/20 11:18:29;;;;;;;;;;;1.50;99.90;;;;;;5099255;27;19927;-80
2023/01/20 11:20:55;;;;;;;;;;;1.50;99.90;;;;;;5120622;27;20369;-80
2023/01/20 11:23:20;;;;;;;;;;;1.60;99.90;;;;;;5114098;27;19983;-80
2023/01/20 11:25:53;;;;;;;;;;;1.60;99.90;;;;;;5114153;27;19931;-78
2023/01/20 11:28:19;;;;;;;;;;;1.60;99.90;;;;;;5131925;27;19977;-78
2023/01/20 11:30:49;;;;;;;;;;;1.60;99.90;;;;;;5135341;27;19927;-78
2023/01/20 11:33:17;;;;;;;;;;;1.60;99.90;;;;;;5116317;27;19981;-79
2023/01/20 11:35:57;;;;;;;;;;;1.60;99.90;;;;;;5097928;27;19927;-78
2023/01/20 11:38:24;;;;;;;;;;;1.70;99.90;;;;;;5115997;27;19923;-79
2023/01/20 11:40:53;;;;;;;;;;;1.70;99.90;;;;;;5116164;27;19979;-78
2023/01/20 11:43:28;;;;;;;;;;;1.70;99.90;;;;;;5116933;27;19955;-79
2023/01/20 11:46:08;;;;;;;;;;;1.70;99.90;;;;;;5113088;27;20329;-78
2023/01/20 11:48:33;;;;;;;;;;;1.70;99.90;;;;;;5112451;27;19924;-78
2023/01/20 11:51:00;;;;;;;;;;;1.60;99.90;;;;;;5115229;27;19942;-79
2023/01/20 11:53:27;;;;;;;;;;;1.70;99.90;;;;;;5117453;27;20390;-78
2023/01/20 11:55:54;;;;;;;;;;;1.70;99.90;;;;;;5091862;27;19931;-78
2023/01/20 11:58:22;;;;;;;;;;;1.70;99.90;;;;;;5129280;27;20506;-78
2023/01/20 12:00:48;;;;;;;;;;;1.70;99.90;;;;;;5129929;27;19974;-78
2023/01/20 12:03:34;;;;;;;;;;;1.70;99.90;;;;;;5113372;27;19932;-78
2023/01/20 12:06:12;;;;;;;;;;;1.70;99.90;;;;;;5118542;27;20039;-78
2023/01/20 12:08:53;;;;;;;;;;;1.70;99.90;;;;;;5121303;27;19927;-79
2023/01/20 12:11:25;;;;;;;;;;;1.70;99.90;;;;;;5121115;27;20293;-78
2023/01/20 12:16:49;;;;;;;;;;;1.70;99.90;;;;;;5118321;27;19927;-78
2023/01/20 12:19:17;;;;;;;;;;;1.70;99.90;;;;;;5112087;27;19932;-78
2023/01/20 12:21:45;;;;;;;;;;;1.70;99.90;;;;;;5120936;27;19969;-78
2023/01/20 12:24:16;;;;;;;;;;;1.70;99.90;;;;;;5109642;28;19928;-78
2023/01/20 12:26:42;;;;;;;;;;;1.70;99.90;;;;;;5109004;27;19923;-78
2023/01/20 12:29:20;;;;;;;;;;;1.70;99.90;;;;;;5120553;27;19927;-78
2023/01/20 12:31:47;;;;;;;;;;;1.70;99.90;;;;;;5119870;27;19923;-78
2023/01/20 12:34:14;;;;;;;;;;;1.70;99.90;;;;;;5100581;27;19932;-78
2023/01/20 12:36:55;;;;;;;;;;;1.70;99.90;;;;;;5120258;27;19923;-78
2023/01/20 12:39:40;;;;;;;;;;;1.80;99.90;;;;;;5120174;27;19923;-78
2023/01/20 12:42:08;;;;;;;;;;;1.80;99.90;;;;;;5120459;27;19923;-78
2023/01/20 12:44:40;;;;;;;;;;;1.80;99.90;;;;;;5119944;27;20397;-78
2023/01/20 12:47:09;;;;;;;;;;;1.80;99.90;;;;;;5097868;27;19931;-78
2023/01/20 12:49:59;;;;;;;;;;;1.90;99.90;;;;;;5138099;27;19924;-79
2023/01/20 12:52:40;;;;;;;;;;;1.90;99.90;;;;;;5136413;27;19929;-78
2023/01/20 12:55:24;;;;;;;;;;;2.00;99.90;;;;;;5102898;27;19983;-79
2023/01/20 12:58:09;;;;;;;;;;;2.00;99.90;;;;;;5115909;27;19927;-78
2023/01/20 13:00:47;;;;;;;;;;;2.10;99.90;;;;;;5111637;27;19923;-77
2023/01/20 13:03:31;;;;;;;;;;;2.00;99.90;;;;;;5120134;27;20397;-78
2023/01/20 13:06:06;;;;;;;;;;;2.10;99.90;;;;;;5111913;27;19931;-78
2023/01/20 13:08:36;;;;;;;;;;;2.10;99.90;;;;;;5114927;27;19923;-78
2023/01/20 13:11:08;;;;;;;;;;;2.10;99.90;;;;;;5119188;27;19928;-78
2023/01/20 13:13:44;;;;;;;;;;;2.20;99.90;;;;;;5117329;28;20020;-78
2023/01/20 13:16:15;;;;;;;;;;;2.20;99.90;;;;;;5112306;27;19948;-79
2023/01/20 13:18:50;;;;;;;;;;;2.30;99.90;;;;;;5113532;27;19979;-78
2023/01/20 13:21:17;;;;;;;;;;;2.30;99.90;;;;;;5109338;28;19924;-79
2023/01/20 13:23:44;;;;;;;;;;;2.30;99.90;;;;;;5112058;27;19962;-78
2023/01/20 13:26:09;;;;;;;;;;;2.30;99.90;;;;;;5108529;28;20400;-78
2023/01/20 13:28:35;;;;;;;;;;;2.30;99.90;;;;;;5119156;28;19930;-79
2023/01/20 13:31:20;;;;;;;;;;;2.30;99.90;;;;;;5134277;28;19934;-78
2023/01/20 13:33:46;;;;;;;;;;;2.30;99.90;;;;;;5135661;28;19967;-78
2023/01/20 13:36:15;;;;;;;;;;;2.30;99.90;;;;;;5101633;28;19923;-78
2023/01/20 13:38:41;;;;;;;;;;;2.40;99.90;;;;;;5119812;28;19923;-78
2023/01/20 13:41:08;;;;;;;;;;;2.40;99.90;;;;;;5117759;28;19972;-79
2023/01/20 13:43:35;;;;;;;;;;;2.40;99.90;;;;;;5115583;28;20385;-79
2023/01/20 13:46:03;;;;;;;;;;;2.40;99.90;;;;;;5120022;28;19927;-79
2023/01/20 13:48:30;;;;;;;;;;;2.40;99.90;;;;;;5109895;28;19931;-78
2023/01/20 13:51:14;;;;;;;;;;;2.40;99.90;;;;;;5119490;28;19927;-78
2023/01/20 13:53:39;;;;;;;;;;;2.40;99.90;;;;;;5110953;28;19949;-78
2023/01/20 13:56:22;;;;;;;;;;;2.40;99.90;;;;;;5117028;28;19928;-78
2023/01/20 13:58:47;;;;;;;;;;;2.40;99.90;;;;;;5119593;28;19935;-79
2023/01/20 14:01:14;;;;;;;;;;;2.40;99.90;;;;;;5100021;28;19923;-78
2023/01/20 14:03:40;;;;;;;;;;;2.40;99.90;;;;;;5112538;28;19959;-78
2023/01/20 14:06:17;;;;;;;;;;;2.40;99.90;;;;;;5113055;28;20063;-78
2023/01/20 14:08:45;;;;;;;;;;;2.40;99.90;;;;;;5119567;28;19938;-79
2023/01/20 14:11:18;;;;;;;;;;;2.40;99.90;;;;;;5119364;28;19946;-78
2023/01/20 14:14:04;;;;;;;;;;;2.40;99.90;;;;;;5118625;28;19927;-79
2023/01/20 14:16:36;;;;;;;;;;;2.30;99.90;;;;;;5114993;28;19969;-79
2023/01/20 14:19:21;;;;;;;;;;;2.30;99.90;;;;;;5112963;28;19927;-79
2023/01/20 14:21:49;;;;;;;;;;;2.30;99.90;;;;;;5130553;28;19928;-78
2023/01/20 14:24:25;;;;;;;;;;;2.30;99.90;;;;;;5119554;27;19923;-78
2023/01/20 14:27:04;;;;;;;;;;;2.20;99.90;;;;;;5118517;27;21342;-78
2023/01/20 14:29:29;;;;;;;;;;;2.20;99.90;;;;;;5122408;27;19960;-79
2023/01/20 14:31:55;;;;;;;;;;;2.20;99.90;;;;;;5105058;27;19927;-79
2023/01/20 14:34:24;;;;;;;;;;;2.30;99.90;;;;;;5098282;28;19955;-78
2023/01/20 14:36:50;;;;;;;;;;;2.20;99.90;;;;;;5118550;27;19924;-78
2023/01/20 14:39:20;;;;;;;;;;;2.20;99.90;;;;;;5122570;27;20422;-79
2023/01/20 14:41:49;;;;;;;;;;;2.20;99.90;;;;;;5120502;27;20258;-78
2023/01/20 14:44:19;;;;;;;;;;;2.20;99.90;;;;;;5105057;27;20034;-78
2023/01/20 14:46:46;;;;;;;;;;;2.10;99.90;;;;;;5140845;27;19956;-78
2023/01/20 14:49:14;;;;;;;;;;;2.10;99.90;;;;;;5114840;27;20543;-79